createdAt,value
2019-04-30T00:00:02.591Z,65.33
2019-04-30T00:01:07.465Z,65.63
2019-04-30T00:02:10.040Z,65.35
2019-04-30T00:03:17.971Z,65.47
2019-04-30T00:04:18.598Z,65.64
2019-04-30T00:05:22.848Z,65.57
2019-04-30T00:06:34.082Z,65.62
2019-04-30T00:07:31.410Z,65.72
2019-04-30T00:08:39.143Z,65.88
2019-04-30T00:09:39.957Z,65.94
2019-04-30T00:10:45.390Z,66.02
2019-04-30T00:11:50.736Z,65.85
2019-04-30T00:12:52.519Z,65.98
2019-04-30T00:13:58.861Z,66.24
2019-04-30T00:15:01.126Z,66.04
2019-04-30T00:16:05.448Z,66.29
2019-04-30T00:17:10.779Z,66.41
2019-04-30T00:18:15.557Z,66.59
2019-04-30T00:19:19.771Z,66.40
2019-04-30T00:20:22.262Z,66.41
2019-04-30T00:21:26.575Z,66.53
2019-04-30T00:22:34.071Z,66.64
2019-04-30T00:23:35.982Z,66.53
2019-04-30T00:24:39.793Z,66.33
2019-04-30T00:25:43.572Z,66.61
2019-04-30T00:26:52.275Z,66.31
2019-04-30T00:27:52.020Z,66.22
2019-04-30T00:28:56.311Z,66.30
2019-04-30T00:30:04.767Z,66.21
2019-04-30T00:31:05.499Z,66.11
2019-04-30T00:32:08.962Z,66.29
2019-04-30T00:33:15.261Z,66.48
2019-04-30T00:34:17.445Z,66.53
2019-04-30T00:35:21.679Z,66.45
2019-04-30T00:36:28.930Z,66.51
2019-04-30T00:37:30.104Z,66.67
2019-04-30T00:38:37.833Z,66.43
2019-04-30T00:39:38.743Z,66.81
2019-04-30T00:40:44.686Z,66.65
2019-04-30T00:41:47.590Z,66.85
2019-04-30T00:42:51.411Z,66.87
2019-04-30T00:43:55.699Z,66.93
2019-04-30T00:45:06.771Z,67.35
2019-04-30T00:46:05.029Z,67.36
2019-04-30T00:47:08.515Z,67.63
2019-04-30T00:48:19.758Z,67.92
2019-04-30T00:49:22.899Z,68.10
2019-04-30T00:50:21.424Z,68.50
2019-04-30T00:51:26.169Z,68.66
2019-04-30T00:52:33.852Z,68.74
2019-04-30T00:53:35.809Z,68.83
2019-04-30T00:54:38.371Z,69.07
2019-04-30T00:55:44.994Z,69.52
2019-04-30T00:56:46.835Z,68.52
2019-04-30T00:57:51.050Z,68.37
2019-04-30T00:58:57.773Z,68.33
2019-04-30T00:59:59.609Z,68.31
2019-04-30T01:01:06.837Z,68.11
2019-04-30T01:02:08.051Z,68.63
2019-04-30T01:03:12.223Z,68.55
2019-04-30T01:04:19.354Z,68.66
2019-04-30T01:05:20.779Z,68.69
2019-04-30T01:06:28.588Z,68.56
2019-04-30T01:07:29.376Z,68.34
2019-04-30T01:08:33.608Z,68.48
2019-04-30T01:09:39.625Z,68.20
2019-04-30T01:10:42.173Z,68.16
2019-04-30T01:11:48.109Z,68.62
2019-04-30T01:12:50.680Z,68.43
2019-04-30T01:13:54.938Z,68.52
2019-04-30T01:15:01.683Z,68.45
2019-04-30T01:16:03.319Z,68.90
2019-04-30T01:17:10.808Z,68.68
2019-04-30T01:18:11.742Z,68.99
2019-04-30T01:19:27.518Z,69.54
2019-04-30T01:20:24.101Z,69.42
2019-04-30T01:21:24.606Z,69.62
2019-04-30T01:22:32.773Z,69.57
2019-04-30T01:23:32.960Z,69.93
2019-04-30T01:24:38.708Z,69.80
2019-04-30T01:25:43.276Z,70.30
2019-04-30T01:26:45.821Z,70.28
2019-04-30T01:27:50.070Z,70.06
2019-04-30T01:28:58.479Z,70.19
2019-04-30T01:29:58.651Z,70.05
2019-04-30T01:31:02.797Z,69.92
2019-04-30T01:32:10.459Z,70.41
2019-04-30T01:33:11.383Z,70.00
2019-04-30T01:34:15.631Z,70.55
2019-04-30T01:35:23.882Z,71.34
2019-04-30T01:36:24.000Z,71.11
2019-04-30T01:37:32.339Z,71.15
2019-04-30T01:38:32.436Z,71.14
2019-04-30T01:39:36.789Z,71.13
2019-04-30T01:40:42.755Z,71.43
2019-04-30T01:41:45.378Z,71.86
2019-04-30T01:42:51.617Z,71.70
2019-04-30T01:43:53.867Z,71.88
2019-04-30T01:44:58.977Z,71.99
2019-04-30T01:46:12.216Z,72.53
2019-04-30T01:47:06.502Z,72.30
2019-04-30T01:48:12.670Z,72.19
2019-04-30T01:49:15.139Z,72.48
2019-04-30T01:50:19.508Z,71.91
2019-04-30T01:51:23.499Z,72.05
2019-04-30T01:52:29.145Z,71.74
2019-04-30T01:53:31.866Z,72.54
2019-04-30T01:54:36.159Z,72.30
2019-04-30T01:55:41.500Z,73.01
2019-04-30T01:56:44.682Z,72.92
2019-04-30T01:57:49.165Z,73.02
2019-04-30T01:58:53.175Z,72.51
2019-04-30T01:59:58.263Z,73.02
2019-04-30T02:01:01.676Z,73.18
2019-04-30T02:02:05.838Z,72.89
2019-04-30T02:03:11.278Z,72.43
2019-04-30T02:04:14.411Z,72.26
2019-04-30T02:05:18.936Z,72.42
2019-04-30T02:06:22.909Z,72.08
2019-04-30T02:07:28.738Z,72.49
2019-04-30T02:08:31.420Z,72.90
2019-04-30T02:09:35.666Z,72.67
2019-04-30T02:10:40.380Z,72.44
2019-04-30T02:11:44.182Z,72.16
2019-04-30T02:12:49.354Z,72.06
2019-04-30T02:13:52.780Z,72.46
2019-04-30T02:14:56.867Z,72.49
2019-04-30T02:16:01.199Z,73.02
2019-04-30T02:17:05.572Z,73.30
2019-04-30T02:18:09.655Z,73.17
2019-04-30T02:19:14.897Z,73.33
2019-04-30T02:20:18.805Z,73.23
2019-04-30T02:21:23.037Z,73.10
2019-04-30T02:22:30.948Z,72.92
2019-04-30T02:23:31.548Z,73.06
2019-04-30T02:24:35.810Z,72.91
2019-04-30T02:25:40.004Z,73.08
2019-04-30T02:26:44.284Z,73.17
2019-04-30T02:27:48.912Z,73.34
2019-04-30T02:28:52.834Z,73.47
2019-04-30T02:29:57.059Z,73.69
2019-04-30T02:31:01.384Z,74.01
2019-04-30T02:32:05.603Z,74.21
2019-04-30T02:33:09.839Z,74.44
2019-04-30T02:34:14.038Z,74.27
2019-04-30T02:35:19.412Z,74.04
2019-04-30T02:36:22.606Z,74.13
2019-04-30T02:37:26.831Z,73.89
2019-04-30T02:38:31.037Z,73.95
2019-04-30T02:39:35.309Z,74.03
2019-04-30T02:40:42.465Z,74.04
2019-04-30T02:41:43.640Z,74.31
2019-04-30T02:42:49.771Z,74.46
2019-04-30T02:43:52.278Z,74.54
2019-04-30T02:44:56.496Z,74.59
2019-04-30T02:46:00.939Z,74.80
2019-04-30T02:47:05.087Z,74.44
2019-04-30T02:48:11.637Z,74.37
2019-04-30T02:49:13.615Z,74.81
2019-04-30T02:50:22.278Z,74.71
2019-04-30T02:51:22.888Z,74.15
2019-04-30T02:52:26.371Z,74.41
2019-04-30T02:53:30.513Z,75.12
2019-04-30T02:54:34.781Z,75.28
2019-04-30T02:55:40.310Z,75.35
2019-04-30T02:56:43.216Z,75.23
2019-04-30T02:57:49.916Z,74.69
2019-04-30T02:58:52.188Z,74.31
2019-04-30T02:59:56.482Z,74.08
2019-04-30T03:01:00.734Z,74.06
2019-04-30T03:02:04.986Z,73.47
2019-04-30T03:03:10.226Z,73.19
2019-04-30T03:04:13.358Z,73.25
2019-04-30T03:05:20.258Z,73.25
2019-04-30T03:06:23.823Z,72.98
2019-04-30T03:07:26.141Z,72.98
2019-04-30T03:08:30.280Z,72.89
2019-04-30T03:09:34.514Z,72.72
2019-04-30T03:10:40.158Z,73.01
2019-04-30T03:11:43.057Z,73.09
2019-04-30T03:12:49.700Z,73.11
2019-04-30T03:13:51.485Z,73.05
2019-04-30T03:14:55.695Z,73.24
2019-04-30T03:16:00.015Z,73.33
2019-04-30T03:17:04.343Z,73.32
2019-04-30T03:18:09.861Z,73.24
2019-04-30T03:19:13.046Z,73.31
2019-04-30T03:20:30.979Z,73.40
2019-04-30T03:21:21.411Z,73.67
2019-04-30T03:22:25.692Z,73.55
2019-04-30T03:23:29.925Z,73.72
2019-04-30T03:24:34.069Z,73.75
2019-04-30T03:25:40.578Z,73.72
2019-04-30T03:26:42.481Z,73.79
2019-04-30T03:27:46.806Z,73.64
2019-04-30T03:28:51.012Z,73.73
2019-04-30T03:29:55.173Z,73.61
2019-04-30T03:31:04.088Z,73.79
2019-04-30T03:32:03.841Z,73.87
2019-04-30T03:33:12.174Z,73.95
2019-04-30T03:34:18.319Z,74.06
2019-04-30T03:35:16.373Z,74.17
2019-04-30T03:36:21.965Z,74.01
2019-04-30T03:37:24.925Z,74.31
2019-04-30T03:38:30.111Z,74.36
2019-04-30T03:39:34.105Z,74.70
2019-04-30T03:40:40.215Z,74.62
2019-04-30T03:41:41.876Z,74.53
2019-04-30T03:42:46.058Z,74.97
2019-04-30T03:43:50.537Z,74.88
2019-04-30T03:44:54.501Z,75.04
2019-04-30T03:45:59.315Z,75.04
2019-04-30T03:47:02.999Z,75.16
2019-04-30T03:48:09.953Z,75.10
2019-04-30T03:49:13.417Z,75.26
2019-04-30T03:50:15.019Z,75.19
2019-04-30T03:51:19.893Z,75.11
2019-04-30T03:52:23.527Z,75.31
2019-04-30T03:53:29.762Z,75.12
2019-04-30T03:54:31.963Z,74.88
2019-04-30T03:55:36.115Z,75.08
2019-04-30T03:56:40.389Z,75.16
2019-04-30T03:57:44.619Z,74.93
2019-04-30T03:58:50.317Z,74.94
2019-04-30T03:59:53.121Z,74.68
2019-04-30T04:01:00.176Z,74.94
2019-04-30T04:02:01.590Z,74.85
2019-04-30T04:03:05.868Z,74.93
2019-04-30T04:04:10.245Z,74.97
2019-04-30T04:05:14.299Z,75.04
2019-04-30T04:06:21.222Z,75.03
2019-04-30T04:07:22.852Z,74.95
2019-04-30T04:08:29.355Z,75.21
2019-04-30T04:09:31.276Z,75.45
2019-04-30T04:10:35.552Z,75.61
2019-04-30T04:11:39.755Z,76.27
2019-04-30T04:12:43.904Z,76.51
2019-04-30T04:13:49.571Z,77.88
2019-04-30T04:14:52.492Z,77.67
2019-04-30T04:15:56.613Z,78.36
2019-04-30T04:17:00.748Z,78.33
2019-04-30T04:18:04.999Z,78.58
2019-04-30T04:19:09.685Z,79.61
2019-04-30T04:20:13.513Z,80.22
2019-04-30T04:21:20.463Z,80.75
2019-04-30T04:22:22.090Z,81.19
2019-04-30T04:23:26.350Z,81.62
2019-04-30T04:24:30.491Z,81.92
2019-04-30T04:25:34.817Z,81.83
2019-04-30T04:26:43.356Z,81.91
2019-04-30T04:27:43.338Z,81.27
2019-04-30T04:28:49.612Z,81.28
2019-04-30T04:29:51.825Z,81.29
2019-04-30T04:30:56.059Z,81.09
2019-04-30T04:32:00.853Z,80.84
2019-04-30T04:33:04.534Z,81.01
2019-04-30T04:34:09.337Z,81.00
2019-04-30T04:35:13.101Z,80.50
2019-04-30T04:36:17.169Z,80.24
2019-04-30T04:37:21.581Z,79.96
2019-04-30T04:38:25.718Z,79.64
2019-04-30T04:39:29.937Z,79.74
2019-04-30T04:40:34.142Z,79.76
2019-04-30T04:41:39.946Z,79.27
2019-04-30T04:42:42.759Z,79.05
2019-04-30T04:43:47.023Z,79.38
2019-04-30T04:44:51.287Z,79.48
2019-04-30T04:45:55.541Z,79.31
2019-04-30T04:47:00.259Z,79.16
2019-04-30T04:48:03.976Z,78.52
2019-04-30T04:49:08.995Z,78.08
2019-04-30T04:50:12.564Z,78.37
2019-04-30T04:51:31.409Z,78.70
2019-04-30T04:52:21.977Z,78.78
2019-04-30T04:53:25.244Z,78.72
2019-04-30T04:54:30.123Z,78.83
2019-04-30T04:55:33.836Z,78.70
2019-04-30T04:56:39.982Z,77.98
2019-04-30T04:57:42.344Z,77.77
2019-04-30T04:58:46.551Z,77.90
2019-04-30T04:59:50.918Z,77.97
2019-04-30T05:00:55.104Z,77.69
2019-04-30T05:01:59.854Z,77.52
2019-04-30T05:03:03.587Z,77.28
2019-04-30T05:04:11.464Z,76.99
2019-04-30T05:05:12.235Z,77.26
2019-04-30T05:06:16.454Z,77.14
2019-04-30T05:07:20.746Z,77.12
2019-04-30T05:08:25.009Z,77.14
2019-04-30T05:09:29.294Z,77.00
2019-04-30T05:10:33.652Z,76.84
2019-04-30T05:11:39.570Z,76.58
2019-04-30T05:12:42.218Z,76.34
2019-04-30T05:13:46.493Z,76.24
2019-04-30T05:14:50.773Z,75.89
2019-04-30T05:15:55.059Z,75.95
2019-04-30T05:16:59.335Z,75.88
2019-04-30T05:18:03.503Z,75.59
2019-04-30T05:19:08.867Z,75.32
2019-04-30T05:20:12.120Z,75.37
2019-04-30T05:21:16.391Z,75.29
2019-04-30T05:22:20.669Z,74.80
2019-04-30T05:23:24.943Z,74.68
2019-04-30T05:24:29.223Z,74.45
2019-04-30T05:25:33.484Z,74.49
2019-04-30T05:26:38.697Z,74.42
2019-04-30T05:27:42.055Z,74.32
2019-04-30T05:28:48.909Z,74.35
2019-04-30T05:29:50.630Z,74.19
2019-04-30T05:30:54.933Z,74.16
2019-04-30T05:31:59.236Z,74.20
2019-04-30T05:33:03.522Z,74.26
2019-04-30T05:34:10.110Z,74.23
2019-04-30T05:35:12.157Z,73.36
2019-04-30T05:36:16.477Z,73.75
2019-04-30T05:37:22.435Z,73.90
2019-04-30T05:38:25.043Z,73.31
2019-04-30T05:39:29.514Z,69.30
2019-04-30T05:40:33.847Z,66.26
2019-04-30T05:41:38.661Z,65.56
2019-04-30T05:42:42.585Z,68.63
2019-04-30T05:43:48.799Z,69.52
2019-04-30T05:44:51.447Z,66.74
2019-04-30T05:45:55.841Z,67.86
2019-04-30T05:47:00.271Z,64.93
2019-04-30T05:48:04.692Z,65.52
2019-04-30T05:49:09.121Z,64.71
2019-04-30T05:50:13.492Z,65.06
2019-04-30T05:51:19.394Z,64.61
2019-04-30T05:52:22.300Z,60.68
2019-04-30T05:53:28.525Z,60.81
2019-04-30T05:54:31.062Z,59.39
2019-04-30T05:55:35.497Z,60.17
2019-04-30T05:56:42.560Z,60.35
2019-04-30T05:57:53.842Z,61.35
2019-04-30T05:58:49.415Z,57.05
2019-04-30T06:00:06.943Z,57.47
2019-04-30T06:01:09.820Z,58.69
2019-04-30T06:02:13.558Z,58.90
2019-04-30T06:03:27.507Z,59.46
2019-04-30T06:04:25.158Z,56.18
2019-04-30T06:05:28.716Z,56.64
2019-04-30T06:06:33.686Z,58.29
2019-04-30T06:07:39.307Z,57.29
2019-04-30T06:08:41.566Z,55.77
2019-04-30T06:09:45.793Z,56.96
2019-04-30T06:10:51.786Z,57.77
2019-04-30T06:11:54.336Z,58.31
2019-04-30T06:12:59.469Z,57.19
2019-04-30T06:14:02.924Z,59.81
2019-04-30T06:15:08.980Z,56.27
2019-04-30T06:16:11.527Z,55.39
2019-04-30T06:17:15.876Z,56.84
2019-04-30T06:18:20.502Z,57.01
2019-04-30T06:19:24.439Z,57.73
2019-04-30T06:20:28.926Z,59.02
2019-04-30T06:21:33.109Z,57.58
2019-04-30T06:22:38.589Z,58.40
2019-04-30T06:23:41.679Z,57.05
2019-04-30T06:24:45.970Z,57.51
2019-04-30T06:25:57.337Z,56.96
2019-04-30T06:26:54.646Z,57.59
2019-04-30T06:27:58.991Z,56.75
2019-04-30T06:29:03.192Z,56.89
2019-04-30T06:30:11.829Z,57.53
2019-04-30T06:31:11.878Z,58.01
2019-04-30T06:32:16.123Z,57.28
2019-04-30T06:33:20.443Z,57.59
2019-04-30T06:34:24.805Z,56.88
2019-04-30T06:35:29.516Z,56.66
2019-04-30T06:36:33.437Z,56.95
2019-04-30T06:37:39.093Z,56.85
2019-04-30T06:38:41.978Z,58.42
2019-04-30T06:39:46.385Z,58.81
2019-04-30T06:40:50.618Z,59.16
2019-04-30T06:42:04.274Z,59.63
2019-04-30T06:43:00.833Z,59.59
2019-04-30T06:44:03.433Z,59.41
2019-04-30T06:45:09.226Z,58.55
2019-04-30T06:46:12.111Z,59.11
2019-04-30T06:47:16.501Z,59.28
2019-04-30T06:48:20.749Z,58.18
2019-04-30T06:49:24.996Z,56.61
2019-04-30T06:50:29.413Z,56.64
2019-04-30T06:51:33.597Z,56.68
2019-04-30T06:52:38.996Z,57.69
2019-04-30T06:53:42.179Z,56.74
2019-04-30T06:54:46.540Z,58.12
2019-04-30T06:55:50.823Z,59.65
2019-04-30T06:56:55.191Z,59.93
2019-04-30T06:58:11.454Z,56.81
2019-04-30T06:59:03.885Z,57.91
2019-04-30T07:00:09.813Z,58.98
2019-04-30T07:01:12.481Z,59.12
2019-04-30T07:02:16.864Z,60.03
2019-04-30T07:03:21.192Z,58.63
2019-04-30T07:04:25.520Z,56.22
2019-04-30T07:05:29.870Z,58.06
2019-04-30T07:06:37.044Z,59.06
2019-04-30T07:07:41.169Z,59.21
2019-04-30T07:08:51.972Z,59.18
2019-04-30T07:09:53.181Z,57.93
2019-04-30T07:10:55.579Z,56.93
2019-04-30T07:11:55.638Z,54.63
2019-04-30T07:13:00.038Z,54.44
2019-04-30T07:14:04.382Z,51.70
2019-04-30T07:15:08.837Z,52.98
2019-04-30T07:16:12.974Z,55.12
2019-04-30T07:17:17.266Z,53.75
2019-04-30T07:18:21.582Z,53.70
2019-04-30T07:19:34.606Z,53.88
2019-04-30T07:20:33.941Z,55.21
2019-04-30T07:21:36.376Z,55.46
2019-04-30T07:22:45.462Z,56.24
2019-04-30T07:23:43.319Z,53.71
2019-04-30T07:24:49.508Z,52.03
2019-04-30T07:25:52.052Z,51.50
2019-04-30T07:26:59.705Z,50.72
2019-04-30T07:28:00.677Z,51.55
2019-04-30T07:29:04.971Z,51.13
2019-04-30T07:30:09.956Z,52.21
2019-04-30T07:31:14.853Z,51.76
2019-04-30T07:32:19.682Z,51.94
2019-04-30T07:33:22.401Z,51.75
2019-04-30T07:34:26.686Z,51.61
2019-04-30T07:35:31.098Z,50.62
2019-04-30T07:36:48.360Z,50.70
2019-04-30T07:37:39.763Z,50.62
2019-04-30T07:38:51.788Z,51.87
2019-04-30T07:39:49.342Z,50.42
2019-04-30T07:40:52.859Z,50.15
2019-04-30T07:41:59.788Z,50.32
2019-04-30T07:43:01.641Z,51.38
2019-04-30T07:44:05.956Z,51.34
2019-04-30T07:45:10.221Z,52.09
2019-04-30T07:46:14.538Z,50.28
2019-04-30T07:47:19.616Z,50.38
2019-04-30T07:48:26.408Z,51.63
2019-04-30T07:49:46.442Z,51.46
2019-04-30T07:50:32.751Z,51.50
2019-04-30T07:51:38.848Z,50.69
2019-04-30T07:52:57.735Z,50.60
2019-04-30T07:53:44.986Z,50.32
2019-04-30T07:54:51.829Z,51.25
2019-04-30T07:55:53.737Z,50.69
2019-04-30T07:57:00.333Z,52.98
2019-04-30T07:58:02.490Z,54.26
2019-04-30T07:59:06.891Z,52.86
2019-04-30T08:00:11.187Z,52.42
2019-04-30T08:01:15.589Z,51.91
2019-04-30T08:02:20.859Z,52.21
2019-04-30T08:03:24.575Z,52.70
2019-04-30T08:04:29.271Z,51.77
2019-04-30T08:05:32.986Z,51.45
2019-04-30T08:06:37.276Z,51.75
2019-04-30T08:07:41.737Z,51.75
2019-04-30T08:08:46.043Z,50.75
2019-04-30T08:09:50.322Z,51.99
2019-04-30T08:10:54.726Z,53.35
2019-04-30T08:11:59.224Z,53.12
2019-04-30T08:13:10.097Z,52.95
2019-04-30T08:14:09.804Z,53.59
2019-04-30T08:15:12.062Z,55.20
2019-04-30T08:16:18.601Z,52.27
2019-04-30T08:17:20.745Z,52.85
2019-04-30T08:18:25.039Z,52.33
2019-04-30T08:19:29.354Z,51.52
2019-04-30T08:20:33.736Z,52.64
2019-04-30T08:21:38.722Z,52.98
2019-04-30T08:22:42.467Z,53.50
2019-04-30T08:23:48.795Z,53.31
2019-04-30T08:24:51.025Z,51.26
2019-04-30T08:25:55.453Z,51.10
2019-04-30T08:27:01.330Z,51.06
2019-04-30T08:28:04.127Z,51.42
2019-04-30T08:29:09.600Z,51.51
2019-04-30T08:30:23.927Z,50.93
2019-04-30T08:31:19.395Z,50.05
2019-04-30T08:32:21.698Z,49.34
2019-04-30T08:33:26.014Z,50.93
2019-04-30T08:34:30.323Z,48.77
2019-04-30T08:35:34.754Z,49.42
2019-04-30T08:36:39.001Z,50.34
2019-04-30T08:37:43.369Z,49.23
2019-04-30T08:38:49.465Z,48.90
2019-04-30T08:39:52.044Z,49.59
2019-04-30T08:40:58.800Z,51.17
2019-04-30T08:42:00.674Z,48.04
2019-04-30T08:43:05.093Z,48.54
2019-04-30T08:44:09.537Z,50.01
2019-04-30T08:45:13.771Z,48.77
2019-04-30T08:46:19.019Z,48.21
2019-04-30T08:47:22.473Z,49.07
2019-04-30T08:48:43.851Z,49.92
2019-04-30T08:49:31.513Z,49.89
2019-04-30T08:50:35.538Z,50.30
2019-04-30T08:51:40.502Z,52.45
2019-04-30T08:52:44.281Z,50.09
2019-04-30T08:53:48.800Z,49.98
2019-04-30T08:54:52.984Z,50.33
2019-04-30T08:55:59.145Z,50.25
2019-04-30T08:57:01.682Z,49.94
2019-04-30T08:58:10.074Z,49.57
2019-04-30T08:59:11.236Z,50.61
2019-04-30T09:00:15.134Z,49.57
2019-04-30T09:01:19.723Z,49.12
2019-04-30T09:02:23.460Z,48.74
2019-04-30T09:03:29.563Z,48.35
2019-04-30T09:04:32.153Z,49.84
2019-04-30T09:05:38.524Z,48.63
2019-04-30T09:06:41.033Z,48.55
2019-04-30T09:07:45.201Z,47.61
2019-04-30T09:08:49.585Z,47.08
2019-04-30T09:09:53.972Z,47.23
2019-04-30T09:10:59.535Z,47.06
2019-04-30T09:12:02.594Z,48.64
2019-04-30T09:13:09.032Z,47.63
2019-04-30T09:14:11.383Z,48.09
2019-04-30T09:15:15.761Z,47.46
2019-04-30T09:16:20.160Z,48.52
2019-04-30T09:17:24.527Z,47.88
2019-04-30T09:18:29.252Z,46.57
2019-04-30T09:19:33.183Z,47.92
2019-04-30T09:20:39.108Z,48.87
2019-04-30T09:21:41.998Z,48.61
2019-04-30T09:22:46.357Z,49.19
2019-04-30T09:23:52.857Z,48.57
2019-04-30T09:24:55.077Z,47.29
2019-04-30T09:25:59.357Z,48.88
2019-04-30T09:27:03.815Z,49.48
2019-04-30T09:28:08.673Z,48.74
2019-04-30T09:29:12.553Z,47.08
2019-04-30T09:30:18.701Z,46.57
2019-04-30T09:31:21.340Z,46.13
2019-04-30T09:32:25.658Z,48.44
2019-04-30T09:33:29.989Z,47.92
2019-04-30T09:34:34.449Z,48.40
2019-04-30T09:35:39.512Z,47.90
2019-04-30T09:36:43.182Z,47.60
2019-04-30T09:37:49.608Z,48.19
2019-04-30T09:38:51.835Z,47.60
2019-04-30T09:39:56.263Z,48.50
2019-04-30T09:41:00.614Z,47.58
2019-04-30T09:42:05.032Z,48.44
2019-04-30T09:43:09.374Z,48.38
2019-04-30T09:44:13.780Z,49.41
2019-04-30T09:45:18.671Z,47.09
2019-04-30T09:46:26.993Z,47.74
2019-04-30T09:47:26.899Z,47.19
2019-04-30T09:48:31.595Z,47.25
2019-04-30T09:49:35.800Z,47.76
2019-04-30T09:50:40.617Z,47.56
2019-04-30T09:51:44.633Z,46.35
2019-04-30T09:52:49.680Z,47.31
2019-04-30T09:53:58.549Z,47.90
2019-04-30T09:54:59.435Z,48.71
2019-04-30T09:56:02.156Z,48.81
2019-04-30T09:57:06.557Z,48.26
2019-04-30T09:58:17.203Z,48.17
2019-04-30T09:59:15.304Z,46.25
2019-04-30T10:00:19.738Z,47.48
2019-04-30T10:01:24.141Z,46.07
2019-04-30T10:02:29.116Z,46.24
2019-04-30T10:03:33.562Z,47.42
2019-04-30T10:04:39.501Z,47.86
2019-04-30T10:05:41.483Z,48.22
2019-04-30T10:06:45.914Z,48.52
2019-04-30T10:07:50.300Z,49.44
2019-04-30T10:08:54.679Z,46.73
2019-04-30T10:09:59.188Z,48.31
2019-04-30T10:11:03.423Z,47.01
2019-04-30T10:12:09.621Z,48.09
2019-04-30T10:13:12.116Z,48.08
2019-04-30T10:14:16.546Z,48.23
2019-04-30T10:15:20.881Z,47.66
2019-04-30T10:16:25.217Z,47.97
2019-04-30T10:17:29.637Z,46.52
2019-04-30T10:18:34.050Z,47.34
2019-04-30T10:19:39.326Z,47.70
2019-04-30T10:20:42.760Z,48.94
2019-04-30T10:21:48.921Z,48.27
2019-04-30T10:22:51.476Z,49.14
2019-04-30T10:24:10.282Z,49.78
2019-04-30T10:25:00.264Z,49.39
2019-04-30T10:26:04.650Z,48.81
2019-04-30T10:27:12.927Z,49.59
2019-04-30T10:28:13.466Z,47.10
2019-04-30T10:29:17.828Z,47.66
2019-04-30T10:30:22.225Z,48.96
2019-04-30T10:31:26.556Z,46.57
2019-04-30T10:32:31.002Z,46.39
2019-04-30T10:33:35.307Z,47.42
2019-04-30T10:34:39.717Z,49.19
2019-04-30T10:35:44.033Z,48.19
2019-04-30T10:36:49.522Z,48.74
2019-04-30T10:37:52.894Z,48.51
2019-04-30T10:38:59.332Z,48.50
2019-04-30T10:40:01.681Z,48.43
2019-04-30T10:41:06.000Z,48.37
2019-04-30T10:42:10.400Z,49.23
2019-04-30T10:43:14.791Z,47.47
2019-04-30T10:44:19.118Z,47.11
2019-04-30T10:45:23.516Z,45.60
2019-04-30T10:46:27.901Z,44.82
2019-04-30T10:47:32.755Z,47.05
2019-04-30T10:48:36.590Z,47.28
2019-04-30T10:49:40.976Z,48.10
2019-04-30T10:50:45.379Z,48.20
2019-04-30T10:51:49.800Z,47.36
2019-04-30T10:52:54.189Z,46.04
2019-04-30T10:53:59.213Z,46.67
2019-04-30T10:55:04.511Z,47.15
2019-04-30T10:56:09.580Z,45.99
2019-04-30T10:57:11.678Z,46.68
2019-04-30T10:58:16.054Z,47.45
2019-04-30T10:59:20.444Z,46.77
2019-04-30T11:00:24.835Z,48.17
2019-04-30T11:01:29.262Z,46.46
2019-04-30T11:02:33.435Z,49.21
2019-04-30T11:03:39.091Z,47.03
2019-04-30T11:04:42.203Z,47.84
2019-04-30T11:05:46.596Z,47.87
2019-04-30T11:06:50.927Z,48.30
2019-04-30T11:07:55.427Z,46.60
2019-04-30T11:08:59.777Z,47.91
2019-04-30T11:10:04.191Z,48.38
2019-04-30T11:11:08.478Z,48.45
2019-04-30T11:12:15.953Z,47.83
2019-04-30T11:13:19.403Z,47.71
2019-04-30T11:14:23.716Z,46.91
2019-04-30T11:15:29.256Z,47.18
2019-04-30T11:16:32.425Z,47.76
2019-04-30T11:17:37.055Z,47.33
2019-04-30T11:18:41.449Z,47.30
2019-04-30T11:19:45.888Z,47.87
2019-04-30T11:20:50.301Z,47.96
2019-04-30T11:21:54.565Z,46.09
2019-04-30T11:22:59.108Z,48.10
2019-04-30T11:24:03.387Z,47.05
2019-04-30T11:25:09.771Z,46.08
2019-04-30T11:26:12.654Z,45.94
2019-04-30T11:27:17.109Z,48.03
2019-04-30T11:28:21.396Z,45.61
2019-04-30T11:29:25.353Z,47.45
2019-04-30T11:30:30.155Z,47.25
2019-04-30T11:31:34.250Z,48.69
2019-04-30T11:32:38.763Z,47.37
2019-04-30T11:33:43.045Z,47.54
2019-04-30T11:34:47.253Z,45.78
2019-04-30T11:36:02.024Z,47.17
2019-04-30T11:36:56.126Z,48.29
2019-04-30T11:38:00.563Z,46.06
2019-04-30T11:39:04.830Z,46.88
2019-04-30T11:40:09.223Z,45.58
2019-04-30T11:41:13.699Z,45.29
2019-04-30T11:42:18.027Z,45.47
2019-04-30T11:43:22.524Z,45.78
2019-04-30T11:44:31.207Z,44.84
2019-04-30T11:45:31.358Z,45.98
2019-04-30T11:46:35.699Z,45.05
2019-04-30T11:47:40.071Z,45.09
2019-04-30T11:48:44.447Z,46.59
2019-04-30T11:49:48.795Z,45.05
2019-04-30T11:50:53.289Z,45.87
2019-04-30T11:51:57.709Z,45.34
2019-04-30T11:53:19.516Z,46.23
2019-04-30T11:54:06.421Z,45.96
2019-04-30T11:55:10.870Z,43.21
2019-04-30T11:56:15.208Z,43.50
2019-04-30T11:57:19.676Z,43.07
2019-04-30T11:58:24.036Z,43.55
2019-04-30T11:59:29.762Z,43.39
2019-04-30T12:00:32.972Z,44.10
2019-04-30T12:01:37.287Z,43.93
2019-04-30T12:02:41.703Z,42.88
2019-04-30T12:03:46.058Z,42.20
2019-04-30T12:04:50.455Z,42.74
2019-04-30T12:05:54.966Z,42.49
2019-04-30T12:06:59.346Z,42.77
2019-04-30T12:08:03.729Z,42.88
2019-04-30T12:09:09.149Z,41.52
2019-04-30T12:10:12.512Z,41.95
2019-04-30T12:11:16.848Z,42.04
2019-04-30T12:12:21.233Z,44.37
2019-04-30T12:13:25.619Z,42.70
2019-04-30T12:14:29.998Z,41.83
2019-04-30T12:15:34.337Z,42.16
2019-04-30T12:16:39.553Z,42.19
2019-04-30T12:17:43.229Z,42.97
2019-04-30T12:18:47.581Z,42.72
2019-04-30T12:19:51.939Z,43.40
2019-04-30T12:20:56.334Z,42.81
2019-04-30T12:22:00.758Z,42.98
2019-04-30T12:23:05.144Z,42.17
2019-04-30T12:24:09.505Z,41.26
2019-04-30T12:25:13.900Z,42.58
2019-04-30T12:26:19.050Z,42.12
2019-04-30T12:27:22.677Z,42.72
2019-04-30T12:28:27.441Z,42.43
2019-04-30T12:29:31.525Z,42.42
2019-04-30T12:30:35.908Z,43.04
2019-04-30T12:31:40.313Z,42.97
2019-04-30T12:32:44.708Z,42.41
2019-04-30T12:33:49.139Z,42.15
2019-04-30T12:34:53.493Z,42.84
2019-04-30T12:35:59.594Z,42.84
2019-04-30T12:37:02.453Z,42.86
2019-04-30T12:38:08.456Z,42.60
2019-04-30T12:39:11.257Z,43.08
2019-04-30T12:40:26.593Z,42.37
2019-04-30T12:41:20.073Z,42.71
2019-04-30T12:42:24.474Z,42.96
2019-04-30T12:43:28.877Z,42.56
2019-04-30T12:44:33.271Z,42.99
2019-04-30T12:45:39.385Z,41.89
2019-04-30T12:46:42.198Z,41.57
2019-04-30T12:47:46.545Z,41.18
2019-04-30T12:48:50.996Z,41.43
2019-04-30T12:49:55.418Z,42.00
2019-04-30T12:50:59.801Z,42.68
2019-04-30T12:52:04.213Z,43.32
2019-04-30T12:53:09.431Z,42.30
2019-04-30T12:54:13.116Z,43.46
2019-04-30T12:55:17.441Z,42.62
2019-04-30T12:56:27.001Z,42.66
2019-04-30T12:57:26.205Z,42.21
2019-04-30T12:58:30.694Z,41.76
2019-04-30T12:59:35.138Z,42.66
2019-04-30T13:00:39.568Z,42.16
2019-04-30T13:01:44.066Z,41.13
2019-04-30T13:02:48.499Z,42.05
2019-04-30T13:03:58.374Z,42.53
2019-04-30T13:05:00.249Z,41.44
2019-04-30T13:06:02.671Z,41.87
2019-04-30T13:07:06.557Z,41.85
2019-04-30T13:08:10.991Z,42.32
2019-04-30T13:09:15.419Z,42.19
2019-04-30T13:10:19.665Z,42.36
2019-04-30T13:11:24.370Z,43.14
2019-04-30T13:12:28.519Z,42.65
2019-04-30T13:13:33.139Z,42.24
2019-04-30T13:14:51.130Z,42.99
2019-04-30T13:15:41.328Z,42.29
2019-04-30T13:16:45.811Z,42.69
2019-04-30T13:17:50.244Z,43.07
2019-04-30T13:18:54.556Z,42.09
2019-04-30T13:19:58.959Z,42.47
2019-04-30T13:21:03.474Z,43.48
2019-04-30T13:22:08.998Z,41.43
2019-04-30T13:23:12.207Z,42.85
2019-04-30T13:24:16.717Z,43.23
2019-04-30T13:25:29.922Z,43.30
2019-04-30T13:26:25.424Z,42.35
2019-04-30T13:27:29.815Z,43.00
2019-04-30T13:28:34.182Z,42.72
2019-04-30T13:29:38.644Z,42.23
2019-04-30T13:30:42.968Z,42.22
2019-04-30T13:31:50.111Z,42.34
2019-04-30T13:32:51.809Z,42.11
2019-04-30T13:33:59.057Z,42.69
2019-04-30T13:35:01.053Z,43.50
2019-04-30T13:36:04.872Z,43.13
2019-04-30T13:37:09.373Z,44.18
2019-04-30T13:38:13.687Z,42.99
2019-04-30T13:39:19.520Z,43.21
2019-04-30T13:40:22.447Z,43.69
2019-04-30T13:41:26.891Z,43.16
2019-04-30T13:42:31.229Z,43.78
2019-04-30T13:43:35.572Z,43.67
2019-04-30T13:44:39.914Z,43.47
2019-04-30T13:45:44.299Z,43.41
2019-04-30T13:46:48.650Z,43.27
2019-04-30T13:47:53.054Z,43.06